sensor_id;sensor_type;location;lat;lon;timestamp;temperature;humidity
31661;DHT22;18267;52.234;7.444;2023-06-01T00:02:02;12.00;99.90
31661;DHT22;18267;52.234;7.444;2023-06-01T00:04:27;12.00;99.90
31661;DHT22;18267;52.234;7.444;2023-06-01T00:06:54;11.90;99.90
31661;DHT22;18267;52.234;7.444;2023-06-01T00:09:20;11.90;99.90
31661;DHT22;18267;52.234;7.444;2023-06-01T00:11:45;11.90;99.90
31661;DHT22;18267;52.234;7.444;2023-06-01T00:14:11;11.80;99.90
31661;DHT22;18267;52.234;7.444;2023-06-01T00:16:36;11.80;99.90
31661;DHT22;18267;52.234;7.444;2023-06-01T00:19:02;11.80;99.90
31661;DHT22;18267;52.234;7.444;2023-06-01T00:21:29;11.80;99.90
31661;DHT22;18267;52.234;7.444;2023-06-01T00:23:56;12.00;99.90
31661;DHT22;18267;52.234;7.444;2023-06-01T00:26:22;12.10;99.90
31661;DHT22;18267;52.234;7.444;2023-06-01T00:28:48;12.10;99.90
31661;DHT22;18267;52.234;7.444;2023-06-01T00:31:13;12.10;99.90
31661;DHT22;18267;52.234;7.444;2023-06-01T00:33:39;12.00;99.90
31661;DHT22;18267;52.234;7.444;2023-06-01T00:36:05;12.00;99.90
31661;DHT22;18267;52.234;7.444;2023-06-01T00:38:30;12.10;99.90
31661;DHT22;18267;52.234;7.444;2023-06-01T00:40:56;12.10;99.90
31661;DHT22;18267;52.234;7.444;2023-06-01T00:43:21;12.00;99.90
31661;DHT22;18267;52.234;7.444;2023-06-01T00:45:47;12.10;99.90
31661;DHT22;18267;52.234;7.444;2023-06-01T00:48:14;12.30;99.90
31661;DHT22;18267;52.234;7.444;2023-06-01T00:50:41;12.30;99.90
31661;DHT22;18267;52.234;7.444;2023-06-01T00:53:17;12.20;99.90
31661;DHT22;18267;52.234;7.444;2023-06-01T00:55:43;12.30;99.90
31661;DHT22;18267;52.234;7.444;2023-06-01T00:58:09;12.40;99.90
31661;DHT22;18267;52.234;7.444;2023-06-01T01:00:35;12.30;99.90
31661;DHT22;18267;52.234;7.444;2023-06-01T01:03:04;12.30;99.90
31661;DHT22;18267;52.234;7.444;2023-06-01T01:05:33;12.20;99.90
31661;DHT22;18267;52.234;7.444;2023-06-01T01:08:24;12.10;99.90
31661;DHT22;18267;52.234;7.444;2023-06-01T01:11:06;12.10;99.90
31661;DHT22;18267;52.234;7.444;2023-06-01T01:16:47;12.30;99.90
31661;DHT22;18267;52.234;7.444;2023-06-01T01:22:07;12.40;99.90
31661;DHT22;18267;52.234;7.444;2023-06-01T01:27:39;12.30;99.90
31661;DHT22;18267;52.234;7.444;2023-06-01T01:30:10;12.00;99.90
31661;DHT22;18267;52.234;7.444;2023-06-01T01:32:37;12.00;99.90
31661;DHT22;18267;52.234;7.444;2023-06-01T01:35:04;11.80;99.90
31661;DHT22;18267;52.234;7.444;2023-06-01T01:37:32;11.70;99.90
31661;DHT22;18267;52.234;7.444;2023-06-01T01:39:58;11.80;99.90
31661;DHT22;18267;52.234;7.444;2023-06-01T01:42:24;11.70;99.90
31661;DHT22;18267;52.234;7.444;2023-06-01T01:44:50;11.60;99.90
31661;DHT22;18267;52.234;7.444;2023-06-01T01:47:24;11.50;99.90
31661;DHT22;18267;52.234;7.444;2023-06-01T01:49:56;11.60;99.90
31661;DHT22;18267;52.234;7.444;2023-06-01T01:52:38;11.80;99.90
31661;DHT22;18267;52.234;7.444;2023-06-01T01:55:06;11.80;99.90
31661;DHT22;18267;52.234;7.444;2023-06-01T01:57:33;11.90;99.90
31661;DHT22;18267;52.234;7.444;2023-06-01T02:00:00;12.00;99.90
31661;DHT22;18267;52.234;7.444;2023-06-01T02:02:27;12.00;99.90
31661;DHT22;18267;52.234;7.444;2023-06-01T02:04:53;12.00;99.90
31661;DHT22;18267;52.234;7.444;2023-06-01T02:07:18;11.80;99.90
31661;DHT22;18267;52.234;7.444;2023-06-01T02:09:44;11.90;99.90
31661;DHT22;18267;52.234;7.444;2023-06-01T02:12:10;11.90;99.90
31661;DHT22;18267;52.234;7.444;2023-06-01T02:14:35;11.80;99.90
31661;DHT22;18267;52.234;7.444;2023-06-01T02:17:01;11.90;99.90
31661;DHT22;18267;52.234;7.444;2023-06-01T02:19:28;12.00;99.90
31661;DHT22;18267;52.234;7.444;2023-06-01T02:21:54;12.00;99.90
31661;DHT22;18267;52.234;7.444;2023-06-01T02:24:20;12.10;99.90
31661;DHT22;18267;52.234;7.444;2023-06-01T02:26:46;12.10;99.90
31661;DHT22;18267;52.234;7.444;2023-06-01T02:29:14;12.10;99.90
31661;DHT22;18267;52.234;7.444;2023-06-01T02:31:40;12.00;99.90
31661;DHT22;18267;52.234;7.444;2023-06-01T02:34:05;12.10;99.90
31661;DHT22;18267;52.234;7.444;2023-06-01T02:36:31;12.30;99.90
31661;DHT22;18267;52.234;7.444;2023-06-01T02:38:57;12.20;99.90
31661;DHT22;18267;52.234;7.444;2023-06-01T02:41:23;12.10;99.90
31661;DHT22;18267;52.234;7.444;2023-06-01T02:43:49;12.10;99.90
31661;DHT22;18267;52.234;7.444;2023-06-01T02:46:18;12.30;99.90
31661;DHT22;18267;52.234;7.444;2023-06-01T02:48:45;12.40;99.90
31661;DHT22;18267;52.234;7.444;2023-06-01T02:51:12;12.30;99.90
31661;DHT22;18267;52.234;7.444;2023-06-01T02:53:41;12.10;99.90
31661;DHT22;18267;52.234;7.444;2023-06-01T02:56:07;11.90;99.90
31661;DHT22;18267;52.234;7.444;2023-06-01T02:58:33;12.00;99.90
31661;DHT22;18267;52.234;7.444;2023-06-01T03:00:59;12.10;99.90
31661;DHT22;18267;52.234;7.444;2023-06-01T03:03:26;12.00;99.90
31661;DHT22;18267;52.234;7.444;2023-06-01T03:05:52;11.90;99.90
31661;DHT22;18267;52.234;7.444;2023-06-01T03:08:18;12.00;99.90
31661;DHT22;18267;52.234;7.444;2023-06-01T03:10:44;12.00;99.90
31661;DHT22;18267;52.234;7.444;2023-06-01T03:13:10;12.10;99.90
31661;DHT22;18267;52.234;7.444;2023-06-01T03:15:36;12.10;99.90
31661;DHT22;18267;52.234;7.444;2023-06-01T03:18:05;12.10;99.90
31661;DHT22;18267;52.234;7.444;2023-06-01T03:20:34;12.10;99.90
31661;DHT22;18267;52.234;7.444;2023-06-01T03:23:00;12.10;99.90
31661;DHT22;18267;52.234;7.444;2023-06-01T03:25:26;12.10;99.90
31661;DHT22;18267;52.234;7.444;2023-06-01T03:27:52;12.00;99.90
31661;DHT22;18267;52.234;7.444;2023-06-01T03:30:17;11.90;99.90
31661;DHT22;18267;52.234;7.444;2023-06-01T03:32:44;11.90;99.90
31661;DHT22;18267;52.234;7.444;2023-06-01T03:35:11;11.80;99.90
31661;DHT22;18267;52.234;7.444;2023-06-01T03:37:41;12.00;99.90
31661;DHT22;18267;52.234;7.444;2023-06-01T03:40:08;12.00;99.90
31661;DHT22;18267;52.234;7.444;2023-06-01T03:42:40;12.00;99.90
31661;DHT22;18267;52.234;7.444;2023-06-01T03:45:06;11.90;99.90
31661;DHT22;18267;52.234;7.444;2023-06-01T03:47:32;11.80;99.90
31661;DHT22;18267;52.234;7.444;2023-06-01T03:49:58;11.70;99.90
31661;DHT22;18267;52.234;7.444;2023-06-01T03:52:25;11.80;99.90
31661;DHT22;18267;52.234;7.444;2023-06-01T03:54:51;11.90;99.90
31661;DHT22;18267;52.234;7.444;2023-06-01T03:57:16;11.90;99.90
31661;DHT22;18267;52.234;7.444;2023-06-01T03:59:42;11.90;99.90
31661;DHT22;18267;52.234;7.444;2023-06-01T04:02:08;11.90;99.90
31661;DHT22;18267;52.234;7.444;2023-06-01T04:04:35;11.80;99.90
31661;DHT22;18267;52.234;7.444;2023-06-01T04:07:02;11.90;99.90
31661;DHT22;18267;52.234;7.444;2023-06-01T04:09:29;11.90;99.90
31661;DHT22;18267;52.234;7.444;2023-06-01T04:11:55;11.90;99.90
31661;DHT22;18267;52.234;7.444;2023-06-01T04:14:21;11.80;99.90
31661;DHT22;18267;52.234;7.444;2023-06-01T04:16:46;11.90;99.90
31661;DHT22;18267;52.234;7.444;2023-06-01T04:19:12;11.90;99.90
31661;DHT22;18267;52.234;7.444;2023-06-01T04:21:37;12.00;99.90
31661;DHT22;18267;52.234;7.444;2023-06-01T04:24:03;11.90;99.90
31661;DHT22;18267;52.234;7.444;2023-06-01T04:26:29;11.90;99.90
31661;DHT22;18267;52.234;7.444;2023-06-01T04:28:58;11.80;99.90
31661;DHT22;18267;52.234;7.444;2023-06-01T04:31:24;11.80;99.90
31661;DHT22;18267;52.234;7.444;2023-06-01T04:33:50;11.80;99.90
31661;DHT22;18267;52.234;7.444;2023-06-01T04:36:24;11.90;99.90
31661;DHT22;18267;52.234;7.444;2023-06-01T04:38:50;11.80;99.90
31661;DHT22;18267;52.234;7.444;2023-06-01T04:41:23;11.90;99.90
31661;DHT22;18267;52.234;7.444;2023-06-01T04:43:51;12.00;99.90
31661;DHT22;18267;52.234;7.444;2023-06-01T04:46:21;12.10;99.90
31661;DHT22;18267;52.234;7.444;2023-06-01T04:48:50;12.20;99.90
31661;DHT22;18267;52.234;7.444;2023-06-01T04:51:20;12.30;99.90
31661;DHT22;18267;52.234;7.444;2023-06-01T04:53:48;12.50;99.90
31661;DHT22;18267;52.234;7.444;2023-06-01T04:56:18;12.50;99.90
31661;DHT22;18267;52.234;7.444;2023-06-01T04:58:45;12.40;99.90
31661;DHT22;18267;52.234;7.444;2023-06-01T05:01:13;12.50;99.90
31661;DHT22;18267;52.234;7.444;2023-06-01T05:03:42;12.20;99.90
31661;DHT22;18267;52.234;7.444;2023-06-01T05:06:09;12.10;99.90
31661;DHT22;18267;52.234;7.444;2023-06-01T05:08:36;12.00;99.90
31661;DHT22;18267;52.234;7.444;2023-06-01T05:11:01;11.80;99.90
31661;DHT22;18267;52.234;7.444;2023-06-01T05:13:28;11.70;99.90
31661;DHT22;18267;52.234;7.444;2023-06-01T05:15:53;11.70;99.90
31661;DHT22;18267;52.234;7.444;2023-06-01T05:18:19;11.80;99.90
31661;DHT22;18267;52.234;7.444;2023-06-01T05:20:48;11.90;99.90
31661;DHT22;18267;52.234;7.444;2023-06-01T05:23:13;12.10;99.90
31661;DHT22;18267;52.234;7.444;2023-06-01T05:25:39;12.10;99.90
31661;DHT22;18267;52.234;7.444;2023-06-01T05:28:05;12.10;99.90
31661;DHT22;18267;52.234;7.444;2023-06-01T05:30:31;11.90;99.90
31661;DHT22;18267;52.234;7.444;2023-06-01T05:32:57;12.00;99.90
31661;DHT22;18267;52.234;7.444;2023-06-01T05:35:38;12.10;99.90
31661;DHT22;18267;52.234;7.444;2023-06-01T05:38:16;12.10;99.90
31661;DHT22;18267;52.234;7.444;2023-06-01T05:40:41;12.00;99.90
31661;DHT22;18267;52.234;7.444;2023-06-01T05:43:10;11.90;99.90
31661;DHT22;18267;52.234;7.444;2023-06-01T05:45:36;12.00;99.90
31661;DHT22;18267;52.234;7.444;2023-06-01T05:48:02;12.10;99.90
31661;DHT22;18267;52.234;7.444;2023-06-01T05:50:28;12.20;99.90
31661;DHT22;18267;52.234;7.444;2023-06-01T05:52:53;12.00;99.90
31661;DHT22;18267;52.234;7.444;2023-06-01T05:55:19;12.10;99.90
31661;DHT22;18267;52.234;7.444;2023-06-01T05:57:45;12.20;99.90
31661;DHT22;18267;52.234;7.444;2023-06-01T06:00:14;12.30;99.90
31661;DHT22;18267;52.234;7.444;2023-06-01T06:02:42;12.40;99.90
31661;DHT22;18267;52.234;7.444;2023-06-01T06:05:08;12.50;99.90
31661;DHT22;18267;52.234;7.444;2023-06-01T06:07:35;12.30;99.90
31661;DHT22;18267;52.234;7.444;2023-06-01T06:10:01;12.10;99.90
31661;DHT22;18267;52.234;7.444;2023-06-01T06:12:27;12.20;99.90
31661;DHT22;18267;52.234;7.444;2023-06-01T06:14:52;12.10;99.90
31661;DHT22;18267;52.234;7.444;2023-06-01T06:17:19;12.10;99.90
31661;DHT22;18267;52.234;7.444;2023-06-01T06:19:44;12.30;99.90
31661;DHT22;18267;52.234;7.444;2023-06-01T06:22:10;12.30;99.90
31661;DHT22;18267;52.234;7.444;2023-06-01T06:24:36;12.30;99.90
31661;DHT22;18267;52.234;7.444;2023-06-01T06:27:02;12.20;99.90
31661;DHT22;18267;52.234;7.444;2023-06-01T06:29:29;12.20;99.90
31661;DHT22;18267;52.234;7.444;2023-06-01T06:31:55;12.20;99.90
31661;DHT22;18267;52.234;7.444;2023-06-01T06:34:20;12.10;99.90
31661;DHT22;18267;52.234;7.444;2023-06-01T06:36:46;12.10;99.90
31661;DHT22;18267;52.234;7.444;2023-06-01T06:39:12;12.20;99.90
31661;DHT22;18267;52.234;7.444;2023-06-01T06:41:40;12.20;99.90
31661;DHT22;18267;52.234;7.444;2023-06-01T06:44:06;12.00;99.90
31661;DHT22;18267;52.234;7.444;2023-06-01T06:46:32;12.10;99.90
31661;DHT22;18267;52.234;7.444;2023-06-01T06:48:57;12.20;99.90
31661;DHT22;18267;52.234;7.444;2023-06-01T06:51:23;12.30;99.90
31661;DHT22;18267;52.234;7.444;2023-06-01T06:53:48;12.40;99.90
31661;DHT22;18267;52.234;7.444;2023-06-01T06:56:14;12.50;99.90
31661;DHT22;18267;52.234;7.444;2023-06-01T06:58:40;12.50;99.90
31661;DHT22;18267;52.234;7.444;2023-06-01T07:01:06;12.30;99.90
31661;DHT22;18267;52.234;7.444;2023-06-01T07:03:32;12.30;99.90
31661;DHT22;18267;52.234;7.444;2023-06-01T07:05:58;12.30;99.90
31661;DHT22;18267;52.234;7.444;2023-06-01T07:08:23;12.30;99.90
31661;DHT22;18267;52.234;7.444;2023-06-01T07:10:49;12.10;99.90
31661;DHT22;18267;52.234;7.444;2023-06-01T07:13:18;12.10;99.90
31661;DHT22;18267;52.234;7.444;2023-06-01T07:15:43;12.40;99.90
31661;DHT22;18267;52.234;7.444;2023-06-01T07:18:09;12.50;99.90
31661;DHT22;18267;52.234;7.444;2023-06-01T07:20:34;12.60;99.90
31661;DHT22;18267;52.234;7.444;2023-06-01T07:23:00;12.80;99.90
31661;DHT22;18267;52.234;7.444;2023-06-01T07:25:25;12.90;99.90
31661;DHT22;18267;52.234;7.444;2023-06-01T07:27:52;13.00;99.90
31661;DHT22;18267;52.234;7.444;2023-06-01T07:30:21;13.10;99.90
31661;DHT22;18267;52.234;7.444;2023-06-01T07:32:47;13.00;99.90
31661;DHT22;18267;52.234;7.444;2023-06-01T07:35:12;12.90;99.90
31661;DHT22;18267;52.234;7.444;2023-06-01T07:37:39;12.90;99.90
31661;DHT22;18267;52.234;7.444;2023-06-01T07:40:06;13.00;99.90
31661;DHT22;18267;52.234;7.444;2023-06-01T07:42:35;13.10;99.90
31661;DHT22;18267;52.234;7.444;2023-06-01T07:45:15;12.90;99.90
31661;DHT22;18267;52.234;7.444;2023-06-01T07:47:41;12.80;99.90
31661;DHT22;18267;52.234;7.444;2023-06-01T07:50:07;12.60;99.90
31661;DHT22;18267;52.234;7.444;2023-06-01T07:52:34;12.70;99.90
31661;DHT22;18267;52.234;7.444;2023-06-01T07:54:59;12.60;99.90
31661;DHT22;18267;52.234;7.444;2023-06-01T07:57:25;12.50;99.90
31661;DHT22;18267;52.234;7.444;2023-06-01T07:59:50;12.40;99.90
31661;DHT22;18267;52.234;7.444;2023-06-01T08:02:16;12.50;99.90
31661;DHT22;18267;52.234;7.444;2023-06-01T08:04:42;12.70;99.90
31661;DHT22;18267;52.234;7.444;2023-06-01T08:07:09;12.60;99.90
31661;DHT22;18267;52.234;7.444;2023-06-01T08:09:38;12.60;99.90
31661;DHT22;18267;52.234;7.444;2023-06-01T08:12:04;12.70;99.90
31661;DHT22;18267;52.234;7.444;2023-06-01T08:14:31;12.70;99.90
31661;DHT22;18267;52.234;7.444;2023-06-01T08:17:00;12.80;99.90
31661;DHT22;18267;52.234;7.444;2023-06-01T08:19:27;13.00;99.90
31661;DHT22;18267;52.234;7.444;2023-06-01T08:21:53;13.10;99.90
31661;DHT22;18267;52.234;7.444;2023-06-01T08:24:19;13.20;99.90
31661;DHT22;18267;52.234;7.444;2023-06-01T08:26:55;13.20;99.90
31661;DHT22;18267;52.234;7.444;2023-06-01T08:29:21;13.20;99.90
31661;DHT22;18267;52.234;7.444;2023-06-01T08:31:47;13.20;99.90
31661;DHT22;18267;52.234;7.444;2023-06-01T08:34:13;12.90;99.90
31661;DHT22;18267;52.234;7.444;2023-06-01T08:36:38;13.00;99.90
31661;DHT22;18267;52.234;7.444;2023-06-01T08:39:20;12.90;99.90
31661;DHT22;18267;52.234;7.444;2023-06-01T08:42:06;12.90;99.90
31661;DHT22;18267;52.234;7.444;2023-06-01T08:44:40;12.80;99.90
31661;DHT22;18267;52.234;7.444;2023-06-01T08:47:07;13.00;99.90
31661;DHT22;18267;52.234;7.444;2023-06-01T08:49:35;13.00;99.90
31661;DHT22;18267;52.234;7.444;2023-06-01T08:52:06;12.90;99.90
31661;DHT22;18267;52.234;7.444;2023-06-01T08:54:32;12.90;99.90
31661;DHT22;18267;52.234;7.444;2023-06-01T08:57:04;13.00;99.90
31661;DHT22;18267;52.234;7.444;2023-06-01T08:59:30;12.90;99.90
31661;DHT22;18267;52.234;7.444;2023-06-01T09:01:57;13.20;99.90
31661;DHT22;18267;52.234;7.444;2023-06-01T09:04:23;13.20;99.90
31661;DHT22;18267;52.234;7.444;2023-06-01T09:06:49;13.20;99.90
31661;DHT22;18267;52.234;7.444;2023-06-01T09:09:15;13.40;99.90
31661;DHT22;18267;52.234;7.444;2023-06-01T09:11:40;13.30;99.90
31661;DHT22;18267;52.234;7.444;2023-06-01T09:14:23;13.40;99.90
31661;DHT22;18267;52.234;7.444;2023-06-01T09:16:49;13.50;99.90
31661;DHT22;18267;52.234;7.444;2023-06-01T09:19:15;13.50;99.90
31661;DHT22;18267;52.234;7.444;2023-06-01T09:21:57;13.50;99.90
31661;DHT22;18267;52.234;7.444;2023-06-01T09:24:23;13.40;99.90
31661;DHT22;18267;52.234;7.444;2023-06-01T09:26:49;13.50;99.90
31661;DHT22;18267;52.234;7.444;2023-06-01T09:29:15;13.50;99.90
31661;DHT22;18267;52.234;7.444;2023-06-01T09:34:17;13.30;99.90
31661;DHT22;18267;52.234;7.444;2023-06-01T09:36:54;13.30;99.90
31661;DHT22;18267;52.234;7.444;2023-06-01T09:39:22;13.20;99.90
31661;DHT22;18267;52.234;7.444;2023-06-01T09:44:32;13.40;99.90
31661;DHT22;18267;52.234;7.444;2023-06-01T09:47:06;13.40;99.90
31661;DHT22;18267;52.234;7.444;2023-06-01T09:49:44;13.30;99.90
31661;DHT22;18267;52.234;7.444;2023-06-01T09:52:11;13.20;99.90
31661;DHT22;18267;52.234;7.444;2023-06-01T09:54:50;13.20;99.90
31661;DHT22;18267;52.234;7.444;2023-06-01T09:57:26;13.30;99.90
31661;DHT22;18267;52.234;7.444;2023-06-01T09:59:55;13.40;99.90
31661;DHT22;18267;52.234;7.444;2023-06-01T10:02:23;13.40;99.90
31661;DHT22;18267;52.234;7.444;2023-06-01T10:04:51;13.50;99.90
31661;DHT22;18267;52.234;7.444;2023-06-01T10:07:26;13.40;99.90
31661;DHT22;18267;52.234;7.444;2023-06-01T10:09:59;13.50;99.90
31661;DHT22;18267;52.234;7.444;2023-06-01T10:12:27;13.40;99.90
31661;DHT22;18267;52.234;7.444;2023-06-01T10:14:55;13.50;99.90
31661;DHT22;18267;52.234;7.444;2023-06-01T10:17:22;13.60;99.90
31661;DHT22;18267;52.234;7.444;2023-06-01T10:19:48;13.80;99.90
31661;DHT22;18267;52.234;7.444;2023-06-01T10:22:14;14.00;99.90
31661;DHT22;18267;52.234;7.444;2023-06-01T10:24:40;14.00;99.90
31661;DHT22;18267;52.234;7.444;2023-06-01T10:29:57;14.10;99.90
31661;DHT22;18267;52.234;7.444;2023-06-01T10:32:48;14.30;99.90
31661;DHT22;18267;52.234;7.444;2023-06-01T10:40:39;14.60;99.90
31661;DHT22;18267;52.234;7.444;2023-06-01T10:43:04;14.40;99.90
31661;DHT22;18267;52.234;7.444;2023-06-01T10:48:05;14.00;99.90
31661;DHT22;18267;52.234;7.444;2023-06-01T10:50:30;14.00;99.90
31661;DHT22;18267;52.234;7.444;2023-06-01T10:53:22;14.00;99.90
31661;DHT22;18267;52.234;7.444;2023-06-01T10:55:42;14.10;99.90
31661;DHT22;18267;52.234;7.444;2023-06-01T10:58:23;14.20;99.90
31661;DHT22;18267;52.234;7.444;2023-06-01T11:00:57;14.50;99.90
31661;DHT22;18267;52.234;7.444;2023-06-01T11:03:46;14.50;99.90
31661;DHT22;18267;52.234;7.444;2023-06-01T11:06:35;14.50;99.90
31661;DHT22;18267;52.234;7.444;2023-06-01T11:09:06;14.60;99.90
31661;DHT22;18267;52.234;7.444;2023-06-01T11:14:19;14.60;99.90
31661;DHT22;18267;52.234;7.444;2023-06-01T11:16:46;14.70;99.90
31661;DHT22;18267;52.234;7.444;2023-06-01T11:19:23;14.80;99.90
31661;DHT22;18267;52.234;7.444;2023-06-01T11:21:57;14.70;99.90
31661;DHT22;18267;52.234;7.444;2023-06-01T11:24:35;14.70;99.90
31661;DHT22;18267;52.234;7.444;2023-06-01T11:27:09;14.60;99.90
31661;DHT22;18267;52.234;7.444;2023-06-01T11:29:35;14.80;99.90
31661;DHT22;18267;52.234;7.444;2023-06-01T11:32:03;14.60;99.90
31661;DHT22;18267;52.234;7.444;2023-06-01T11:34:39;14.60;99.90
31661;DHT22;18267;52.234;7.444;2023-06-01T11:37:16;14.70;99.90
31661;DHT22;18267;52.234;7.444;2023-06-01T11:39:43;14.90;99.90
31661;DHT22;18267;52.234;7.444;2023-06-01T11:44:55;15.20;99.90
31661;DHT22;18267;52.234;7.444;2023-06-01T11:47:21;15.50;99.90
31661;DHT22;18267;52.234;7.444;2023-06-01T11:49:48;15.40;99.90
31661;DHT22;18267;52.234;7.444;2023-06-01T11:52:18;15.30;99.90
31661;DHT22;18267;52.234;7.444;2023-06-01T11:54:44;15.40;99.90
31661;DHT22;18267;52.234;7.444;2023-06-01T11:57:10;15.50;99.90
31661;DHT22;18267;52.234;7.444;2023-06-01T12:02:03;15.60;99.90
31661;DHT22;18267;52.234;7.444;2023-06-01T12:04:29;15.80;99.90
31661;DHT22;18267;52.234;7.444;2023-06-01T12:07:05;16.00;99.90
31661;DHT22;18267;52.234;7.444;2023-06-01T12:09:31;16.10;99.90
31661;DHT22;18267;52.234;7.444;2023-06-01T12:11:58;16.10;99.90
31661;DHT22;18267;52.234;7.444;2023-06-01T12:14:24;16.00;99.90
31661;DHT22;18267;52.234;7.444;2023-06-01T12:16:56;16.20;99.90
31661;DHT22;18267;52.234;7.444;2023-06-01T12:19:26;16.30;99.90
31661;DHT22;18267;52.234;7.444;2023-06-01T12:21:56;16.40;99.90
31661;DHT22;18267;52.234;7.444;2023-06-01T12:24:30;16.50;99.90
31661;DHT22;18267;52.234;7.444;2023-06-01T12:26:58;16.10;99.90
31661;DHT22;18267;52.234;7.444;2023-06-01T12:29:41;16.10;99.90
31661;DHT22;18267;52.234;7.444;2023-06-01T12:32:07;16.10;99.90
31661;DHT22;18267;52.234;7.444;2023-06-01T12:34:35;16.10;99.90
31661;DHT22;18267;52.234;7.444;2023-06-01T12:37:12;15.90;99.90
31661;DHT22;18267;52.234;7.444;2023-06-01T12:39:38;16.00;99.90
31661;DHT22;18267;52.234;7.444;2023-06-01T12:42:06;16.10;99.90
31661;DHT22;18267;52.234;7.444;2023-06-01T12:44:41;16.20;99.90
31661;DHT22;18267;52.234;7.444;2023-06-01T12:47:17;16.30;99.90
31661;DHT22;18267;52.234;7.444;2023-06-01T12:50:01;16.20;99.90
31661;DHT22;18267;52.234;7.444;2023-06-01T12:52:27;16.00;99.90
31661;DHT22;18267;52.234;7.444;2023-06-01T12:54:52;15.90;99.90
31661;DHT22;18267;52.234;7.444;2023-06-01T12:57:18;15.80;99.90
31661;DHT22;18267;52.234;7.444;2023-06-01T12:59:44;15.70;99.90
31661;DHT22;18267;52.234;7.444;2023-06-01T13:02:09;15.60;99.90
31661;DHT22;18267;52.234;7.444;2023-06-01T13:04:35;15.60;99.90
31661;DHT22;18267;52.234;7.444;2023-06-01T13:07:00;15.60;99.90
31661;DHT22;18267;52.234;7.444;2023-06-01T13:09:27;15.70;99.90
31661;DHT22;18267;52.234;7.444;2023-06-01T13:11:53;15.60;99.90
31661;DHT22;18267;52.234;7.444;2023-06-01T13:14:20;15.60;99.90
31661;DHT22;18267;52.234;7.444;2023-06-01T13:16:47;15.30;99.90
31661;DHT22;18267;52.234;7.444;2023-06-01T13:19:30;15.20;99.90
31661;DHT22;18267;52.234;7.444;2023-06-01T13:22:26;15.30;99.90
31661;DHT22;18267;52.234;7.444;2023-06-01T13:24:53;15.20;99.90
31661;DHT22;18267;52.234;7.444;2023-06-01T13:27:18;15.20;99.90
31661;DHT22;18267;52.234;7.444;2023-06-01T13:29:44;15.20;99.90
31661;DHT22;18267;52.234;7.444;2023-06-01T13:32:09;15.20;99.90
31661;DHT22;18267;52.234;7.444;2023-06-01T13:34:35;15.20;99.90
31661;DHT22;18267;52.234;7.444;2023-06-01T13:37:01;15.20;99.90
31661;DHT22;18267;52.234;7.444;2023-06-01T13:39:26;15.10;99.90
31661;DHT22;18267;52.234;7.444;2023-06-01T13:42:15;15.00;99.90
31661;DHT22;18267;52.234;7.444;2023-06-01T13:44:42;15.00;99.90
31661;DHT22;18267;52.234;7.444;2023-06-01T13:47:13;15.00;99.90
31661;DHT22;18267;52.234;7.444;2023-06-01T13:49:45;15.00;99.90
31661;DHT22;18267;52.234;7.444;2023-06-01T13:52:11;15.10;99.90
31661;DHT22;18267;52.234;7.444;2023-06-01T13:54:36;15.00;99.90
31661;DHT22;18267;52.234;7.444;2023-06-01T13:57:02;14.90;99.90
31661;DHT22;18267;52.234;7.444;2023-06-01T13:59:35;15.10;99.90
31661;DHT22;18267;52.234;7.444;2023-06-01T14:02:31;14.90;99.90
31661;DHT22;18267;52.234;7.444;2023-06-01T14:05:09;14.80;99.90
31661;DHT22;18267;52.234;7.444;2023-06-01T14:07:47;14.90;99.90
31661;DHT22;18267;52.234;7.444;2023-06-01T14:10:16;14.80;99.90
31661;DHT22;18267;52.234;7.444;2023-06-01T14:12:47;14.70;99.90
31661;DHT22;18267;52.234;7.444;2023-06-01T14:15:23;14.70;99.90
31661;DHT22;18267;52.234;7.444;2023-06-01T14:18:11;14.60;99.90
31661;DHT22;18267;52.234;7.444;2023-06-01T14:20:41;14.70;99.90
31661;DHT22;18267;52.234;7.444;2023-06-01T14:23:09;14.60;99.90
31661;DHT22;18267;52.234;7.444;2023-06-01T14:25:38;14.70;99.90
31661;DHT22;18267;52.234;7.444;2023-06-01T14:28:07;14.70;99.90
31661;DHT22;18267;52.234;7.444;2023-06-01T14:30:34;14.80;99.90
31661;DHT22;18267;52.234;7.444;2023-06-01T14:33:03;14.80;99.90
31661;DHT22;18267;52.234;7.444;2023-06-01T14:35:29;15.00;99.90
31661;DHT22;18267;52.234;7.444;2023-06-01T14:38:20;15.20;99.90
31661;DHT22;18267;52.234;7.444;2023-06-01T14:40:50;15.30;99.90
31661;DHT22;18267;52.234;7.444;2023-06-01T14:43:19;15.20;99.90
31661;DHT22;18267;52.234;7.444;2023-06-01T14:45:49;15.40;99.90
31661;DHT22;18267;52.234;7.444;2023-06-01T14:51:18;15.50;99.90
31661;DHT22;18267;52.234;7.444;2023-06-01T14:53:50;15.50;99.90
31661;DHT22;18267;52.234;7.444;2023-06-01T14:56:19;15.60;99.90
31661;DHT22;18267;52.234;7.444;2023-06-01T14:58:59;15.40;99.90
31661;DHT22;18267;52.234;7.444;2023-06-01T15:01:31;15.50;99.90
31661;DHT22;18267;52.234;7.444;2023-06-01T15:04:02;15.60;99.90
31661;DHT22;18267;52.234;7.444;2023-06-01T15:06:44;15.80;99.90
31661;DHT22;18267;52.234;7.444;2023-06-01T15:09:24;16.00;99.90
31661;DHT22;18267;52.234;7.444;2023-06-01T15:12:26;16.00;99.90
31661;DHT22;18267;52.234;7.444;2023-06-01T15:14:52;16.10;99.90
31661;DHT22;18267;52.234;7.444;2023-06-01T15:17:18;16.00;99.90
31661;DHT22;18267;52.234;7.444;2023-06-01T15:19:43;16.00;99.90
31661;DHT22;18267;52.234;7.444;2023-06-01T15:22:10;15.90;99.90
31661;DHT22;18267;52.234;7.444;2023-06-01T15:24:36;15.90;99.90
31661;DHT22;18267;52.234;7.444;2023-06-01T15:27:03;15.90;99.90
31661;DHT22;18267;52.234;7.444;2023-06-01T15:29:28;15.90;99.90
31661;DHT22;18267;52.234;7.444;2023-06-01T15:31:54;15.90;99.90
31661;DHT22;18267;52.234;7.444;2023-06-01T15:34:20;16.00;99.90
31661;DHT22;18267;52.234;7.444;2023-06-01T15:36:45;16.00;99.90
31661;DHT22;18267;52.234;7.444;2023-06-01T15:39:11;15.90;99.90
31661;DHT22;18267;52.234;7.444;2023-06-01T15:41:37;16.00;99.90
31661;DHT22;18267;52.234;7.444;2023-06-01T15:44:02;15.80;99.90
31661;DHT22;18267;52.234;7.444;2023-06-01T15:46:28;15.80;99.90
31661;DHT22;18267;52.234;7.444;2023-06-01T15:48:53;16.00;99.90
31661;DHT22;18267;52.234;7.444;2023-06-01T15:51:19;15.90;99.90
31661;DHT22;18267;52.234;7.444;2023-06-01T15:53:44;15.70;99.90
31661;DHT22;18267;52.234;7.444;2023-06-01T15:56:10;15.60;99.90
31661;DHT22;18267;52.234;7.444;2023-06-01T15:58:36;15.60;99.90
31661;DHT22;18267;52.234;7.444;2023-06-01T16:01:02;15.60;99.90
31661;DHT22;18267;52.234;7.444;2023-06-01T16:03:28;15.70;99.90
31661;DHT22;18267;52.234;7.444;2023-06-01T16:05:53;15.80;99.90
31661;DHT22;18267;52.234;7.444;2023-06-01T16:08:19;15.80;99.90
31661;DHT22;18267;52.234;7.444;2023-06-01T16:10:44;16.00;99.90
31661;DHT22;18267;52.234;7.444;2023-06-01T16:13:10;16.10;99.90
31661;DHT22;18267;52.234;7.444;2023-06-01T16:15:35;16.20;99.90